createdAt,value
2022-09-25T00:00:45.961Z,20.40
2022-09-25T00:03:14.200Z,20.40
2022-09-25T00:05:43.357Z,20.40
2022-09-25T00:08:11.331Z,20.40
2022-09-25T00:10:41.571Z,20.40
2022-09-25T00:13:09.734Z,20.40
2022-09-25T00:15:38.930Z,20.40
2022-09-25T00:18:06.878Z,20.50
2022-09-25T00:20:33.747Z,20.60
2022-09-25T00:23:02.252Z,20.70
2022-09-25T00:25:30.133Z,20.80
2022-09-25T00:27:58.001Z,20.70
2022-09-25T00:30:25.883Z,20.70
2022-09-25T00:32:55.078Z,20.60
2022-09-25T00:35:22.912Z,20.50
2022-09-25T00:37:50.790Z,20.50
2022-09-25T00:40:19.649Z,20.50
2022-09-25T00:42:47.550Z,20.50
2022-09-25T00:45:18.111Z,20.40
2022-09-25T00:48:05.431Z,20.40
2022-09-25T00:50:35.069Z,20.40
2022-09-25T00:53:06.278Z,20.50
2022-09-25T00:55:35.391Z,20.50
2022-09-25T00:58:03.692Z,20.60
2022-09-25T01:00:31.869Z,20.50
2022-09-25T01:02:59.835Z,20.50
2022-09-25T01:05:30.326Z,20.50
2022-09-25T01:07:59.056Z,20.50
2022-09-25T01:10:26.984Z,20.50
2022-09-25T01:12:55.124Z,20.50
2022-09-25T01:15:24.597Z,20.40
2022-09-25T01:17:59.653Z,20.40
2022-09-25T01:20:39.492Z,20.40
2022-09-25T01:23:12.850Z,20.40
2022-09-25T01:25:45.907Z,20.40
2022-09-25T01:28:21.736Z,20.30
2022-09-25T01:30:52.077Z,20.40
2022-09-25T01:33:22.370Z,20.50
2022-09-25T01:35:50.979Z,20.60
2022-09-25T01:38:25.142Z,20.70
2022-09-25T01:40:57.398Z,20.70
2022-09-25T01:43:27.520Z,20.70
2022-09-25T01:45:58.298Z,20.60
2022-09-25T01:48:27.035Z,20.60
2022-09-25T01:50:57.454Z,20.50
2022-09-25T01:53:27.641Z,20.50
2022-09-25T01:55:57.547Z,20.50
2022-09-25T01:58:27.290Z,20.50
2022-09-25T02:00:58.116Z,20.40
2022-09-25T02:03:28.395Z,20.40
2022-09-25T02:05:57.630Z,20.40
2022-09-25T02:08:27.110Z,20.40
2022-09-25T02:10:56.584Z,20.40
2022-09-25T02:13:25.798Z,20.40
2022-09-25T02:15:54.759Z,20.30
2022-09-25T02:18:43.098Z,20.30
2022-09-25T02:21:14.796Z,20.40
2022-09-25T02:23:48.652Z,20.50
2022-09-25T02:26:19.078Z,20.60
2022-09-25T02:28:46.910Z,20.70
2022-09-25T02:31:14.839Z,20.70
2022-09-25T02:33:44.113Z,20.70
2022-09-25T02:36:18.689Z,20.60
2022-09-25T02:38:46.570Z,20.50
2022-09-25T02:41:18.422Z,20.50
2022-09-25T02:43:47.267Z,20.50
2022-09-25T02:46:18.292Z,20.50
2022-09-25T02:48:50.682Z,20.40
2022-09-25T02:51:21.427Z,20.40
2022-09-25T02:53:51.258Z,20.40
2022-09-25T02:56:24.617Z,20.30
2022-09-25T02:58:53.515Z,20.50
2022-09-25T03:01:23.063Z,20.50
2022-09-25T03:03:53.955Z,20.60
2022-09-25T03:06:21.912Z,20.60
2022-09-25T03:08:52.828Z,20.50
2022-09-25T03:11:23.532Z,20.50
2022-09-25T03:13:56.628Z,20.50
2022-09-25T03:16:30.460Z,20.50
2022-09-25T03:18:59.724Z,20.40
2022-09-25T03:21:27.562Z,20.40
2022-09-25T03:23:56.908Z,20.40
2022-09-25T03:26:25.415Z,20.40
2022-09-25T03:28:53.607Z,20.40
2022-09-25T03:31:21.719Z,20.40
2022-09-25T03:33:49.807Z,20.30
2022-09-25T03:36:20.582Z,20.30
2022-09-25T03:38:50.406Z,20.30
2022-09-25T03:41:21.253Z,20.30
2022-09-25T03:43:51.458Z,20.30
2022-09-25T03:46:20.574Z,20.30
2022-09-25T03:48:48.523Z,20.30
2022-09-25T03:51:18.677Z,20.30
2022-09-25T03:53:47.962Z,20.40
2022-09-25T03:56:16.961Z,20.50
2022-09-25T03:58:44.849Z,20.60
2022-09-25T04:01:12.831Z,20.70
2022-09-25T04:03:40.797Z,20.70
2022-09-25T04:06:09.398Z,20.70
2022-09-25T04:08:38.925Z,20.70
2022-09-25T04:11:07.179Z,20.60
2022-09-25T04:13:36.155Z,20.50
2022-09-25T04:16:05.114Z,20.50
2022-09-25T04:18:33.192Z,20.50
2022-09-25T04:21:01.162Z,20.50
2022-09-25T04:23:29.034Z,20.40
2022-09-25T04:25:58.264Z,20.40
2022-09-25T04:28:26.258Z,20.40
2022-09-25T04:30:54.150Z,20.40
2022-09-25T04:33:39.426Z,20.40
2022-09-25T04:36:07.696Z,20.40
2022-09-25T04:38:35.704Z,20.30
2022-09-25T04:41:05.642Z,20.40
2022-09-25T04:43:33.815Z,20.40
2022-09-25T04:46:02.683Z,20.50
2022-09-25T04:48:30.762Z,20.60
2022-09-25T04:50:58.613Z,20.70
2022-09-25T04:53:27.407Z,20.70
2022-09-25T04:55:55.778Z,20.60
2022-09-25T04:58:24.981Z,20.60
2022-09-25T05:00:52.884Z,20.50
2022-09-25T05:03:20.981Z,20.40
2022-09-25T05:05:48.928Z,20.50
2022-09-25T05:08:16.776Z,20.40
2022-09-25T05:10:44.687Z,20.40
2022-09-25T05:13:12.597Z,20.40
2022-09-25T05:15:41.782Z,20.40
2022-09-25T05:18:18.062Z,20.40
2022-09-25T05:20:46.344Z,20.50
2022-09-25T05:23:14.373Z,20.60
2022-09-25T05:25:42.373Z,20.60
2022-09-25T05:28:10.252Z,20.50
2022-09-25T05:30:38.798Z,20.50
2022-09-25T05:33:08.070Z,20.50
2022-09-25T05:35:36.513Z,20.50
2022-09-25T05:38:06.561Z,20.40
2022-09-25T05:40:34.417Z,20.40
2022-09-25T05:43:03.472Z,20.40
2022-09-25T05:45:31.307Z,20.40
2022-09-25T05:48:02.934Z,20.40
2022-09-25T05:50:33.075Z,20.30
2022-09-25T05:53:01.267Z,20.30
2022-09-25T05:55:29.152Z,20.30
2022-09-25T05:58:01.215Z,20.40
2022-09-25T06:00:29.193Z,20.50
2022-09-25T06:02:57.078Z,20.60
2022-09-25T06:05:24.984Z,20.70
2022-09-25T06:07:57.247Z,20.70
2022-09-25T06:10:26.734Z,20.70
2022-09-25T06:12:58.562Z,20.60
2022-09-25T06:15:27.906Z,20.50
2022-09-25T06:17:56.021Z,20.40
2022-09-25T06:20:24.283Z,20.50
2022-09-25T06:22:53.601Z,20.40
2022-09-25T06:25:23.742Z,20.40
2022-09-25T06:27:53.420Z,20.30
2022-09-25T06:30:21.978Z,20.30
2022-09-25T06:32:50.971Z,20.30
2022-09-25T06:35:18.848Z,20.30
2022-09-25T06:37:46.697Z,20.30
2022-09-25T06:40:14.739Z,20.30
2022-09-25T06:42:46.015Z,20.30
2022-09-25T06:45:13.941Z,20.30
2022-09-25T06:47:41.764Z,20.30
2022-09-25T06:50:10.654Z,20.40
2022-09-25T06:52:43.375Z,20.60
2022-09-25T06:55:11.350Z,20.60
2022-09-25T06:57:39.218Z,20.70
2022-09-25T07:00:09.938Z,20.70
2022-09-25T07:02:55.432Z,20.60
2022-09-25T07:05:23.360Z,20.50
2022-09-25T07:07:51.208Z,20.40
2022-09-25T07:10:19.134Z,20.40
2022-09-25T07:12:47.954Z,20.40
2022-09-25T07:15:17.376Z,20.40
2022-09-25T07:17:45.423Z,20.30
2022-09-25T07:20:15.159Z,20.30
2022-09-25T07:22:43.232Z,20.30
2022-09-25T07:25:11.511Z,20.30
2022-09-25T07:27:39.785Z,20.30
2022-09-25T07:30:09.169Z,20.30
2022-09-25T07:32:38.371Z,20.30
2022-09-25T07:35:06.796Z,20.20
2022-09-25T07:37:34.681Z,20.30
2022-09-25T07:40:02.857Z,20.30
2022-09-25T07:42:31.548Z,20.30
2022-09-25T07:44:59.428Z,20.30
2022-09-25T07:47:27.289Z,20.30
2022-09-25T07:49:56.515Z,20.30
2022-09-25T07:52:24.432Z,20.40
2022-09-25T07:54:52.308Z,20.50
2022-09-25T07:57:20.532Z,20.60
2022-09-25T07:59:48.406Z,20.70
2022-09-25T08:02:16.312Z,20.70
2022-09-25T08:04:44.237Z,20.60
2022-09-25T08:07:13.469Z,20.60
2022-09-25T08:09:41.676Z,20.50
2022-09-25T08:12:12.830Z,20.50
2022-09-25T08:14:41.749Z,20.40
2022-09-25T08:17:09.634Z,20.40
2022-09-25T08:19:37.494Z,20.40
2022-09-25T08:22:05.341Z,20.30
2022-09-25T08:24:34.533Z,20.30
2022-09-25T08:27:02.386Z,20.30
2022-09-25T08:29:30.857Z,20.40
2022-09-25T08:31:58.757Z,20.50
2022-09-25T08:34:40.707Z,20.60
2022-09-25T08:37:09.628Z,20.50
2022-09-25T08:39:38.833Z,20.50
2022-09-25T08:42:06.758Z,20.50
2022-09-25T08:44:37.237Z,20.50
2022-09-25T08:47:23.705Z,20.50
2022-09-25T08:49:54.095Z,20.40
2022-09-25T08:52:22.759Z,20.40
2022-09-25T08:54:51.989Z,20.40
2022-09-25T08:57:27.210Z,20.40
2022-09-25T09:00:01.463Z,20.40
2022-09-25T09:02:39.166Z,20.30
2022-09-25T09:05:10.889Z,20.30
2022-09-25T09:07:40.181Z,20.30
2022-09-25T09:10:16.510Z,20.40
2022-09-25T09:12:46.049Z,20.50
2022-09-25T09:15:19.703Z,20.70
2022-09-25T09:17:47.581Z,20.70
2022-09-25T09:20:18.878Z,20.60
2022-09-25T09:22:50.649Z,20.60
2022-09-25T09:25:26.538Z,20.60
2022-09-25T09:28:03.760Z,20.60
2022-09-25T09:30:33.657Z,20.50
2022-09-25T09:33:20.663Z,20.50
2022-09-25T09:35:53.116Z,20.50
2022-09-25T09:38:28.307Z,20.50
2022-09-25T09:41:08.168Z,20.50
2022-09-25T09:43:54.923Z,20.40
2022-09-25T09:46:28.775Z,20.40
2022-09-25T09:49:03.776Z,20.40
2022-09-25T09:51:33.220Z,20.40
2022-09-25T09:54:03.201Z,20.60
2022-09-25T09:56:33.002Z,20.70
2022-09-25T09:59:02.810Z,20.80
2022-09-25T10:01:42.059Z,20.80
2022-09-25T10:04:12.660Z,20.80
2022-09-25T10:06:43.504Z,20.70
2022-09-25T10:09:11.913Z,20.60
2022-09-25T10:11:41.089Z,20.50
2022-09-25T10:14:12.667Z,20.50
2022-09-25T10:16:40.644Z,20.50
2022-09-25T10:19:11.162Z,20.50
2022-09-25T10:21:40.419Z,20.40
2022-09-25T10:24:08.338Z,20.40
2022-09-25T10:26:37.065Z,20.40
2022-09-25T10:29:24.246Z,20.40
2022-09-25T10:31:58.617Z,20.40
2022-09-25T10:34:28.607Z,20.40
2022-09-25T10:36:56.548Z,20.30
2022-09-25T10:39:46.165Z,20.40
2022-09-25T10:42:33.535Z,20.40
2022-09-25T10:45:21.527Z,20.60
2022-09-25T10:48:06.697Z,20.80
2022-09-25T10:50:36.805Z,20.90
2022-09-25T10:53:05.583Z,20.90
2022-09-25T10:55:35.058Z,20.80
2022-09-25T10:58:09.231Z,20.70
2022-09-25T11:00:44.614Z,20.60
2022-09-25T11:03:21.277Z,20.60
2022-09-25T11:05:52.186Z,20.50
2022-09-25T11:08:20.048Z,20.50
2022-09-25T11:10:50.736Z,20.50
2022-09-25T11:13:22.302Z,20.50
2022-09-25T11:15:53.787Z,20.50
2022-09-25T11:18:46.827Z,20.50
2022-09-25T11:21:22.900Z,20.50
2022-09-25T11:24:02.418Z,20.50
2022-09-25T11:26:32.647Z,20.50
2022-09-25T11:29:04.931Z,20.60
2022-09-25T11:31:36.710Z,20.70
2022-09-25T11:34:11.270Z,20.90
2022-09-25T11:36:42.581Z,20.90
2022-09-25T11:39:30.027Z,20.90
2022-09-25T11:42:00.150Z,20.90
2022-09-25T11:44:31.905Z,20.80
2022-09-25T11:47:05.164Z,20.70
2022-09-25T11:49:34.390Z,20.60
2022-09-25T11:52:32.461Z,20.60
2022-09-25T11:55:34.686Z,20.60
2022-09-25T11:58:09.881Z,20.50
2022-09-25T12:00:41.485Z,20.50
2022-09-25T12:03:25.404Z,20.50
2022-09-25T12:06:02.897Z,20.50
2022-09-25T12:08:39.704Z,20.40
2022-09-25T12:11:14.075Z,20.50
2022-09-25T12:13:44.667Z,20.40
2022-09-25T12:16:18.529Z,20.40
2022-09-25T12:19:06.713Z,20.50
2022-09-25T12:21:36.502Z,20.70
2022-09-25T12:24:10.187Z,20.90
2022-09-25T12:26:41.450Z,21.00
2022-09-25T12:29:16.406Z,21.00
2022-09-25T12:31:50.804Z,21.00
2022-09-25T12:34:26.845Z,20.80
2022-09-25T12:36:58.021Z,20.70
2022-09-25T12:39:31.155Z,20.70
2022-09-25T12:42:07.353Z,20.70
2022-09-25T12:44:41.701Z,20.60
2022-09-25T12:47:11.321Z,20.60
2022-09-25T12:49:41.643Z,20.50
2022-09-25T12:52:12.169Z,20.60
2022-09-25T12:54:45.420Z,20.60
2022-09-25T12:57:15.021Z,20.50
2022-09-25T12:59:46.576Z,20.50
2022-09-25T13:02:17.688Z,20.50
2022-09-25T13:04:55.710Z,20.50
2022-09-25T13:07:25.993Z,20.60
2022-09-25T13:09:53.840Z,20.80
2022-09-25T13:12:27.632Z,21.00
2022-09-25T13:14:57.171Z,21.10
2022-09-25T13:17:25.049Z,21.00
2022-09-25T13:19:54.325Z,20.90
2022-09-25T13:22:24.571Z,20.80
2022-09-25T13:24:56.330Z,20.70
2022-09-25T13:27:25.624Z,20.70
2022-09-25T13:29:56.641Z,20.70
2022-09-25T13:32:25.440Z,20.60
2022-09-25T13:34:56.524Z,20.60
2022-09-25T13:37:26.500Z,20.50
2022-09-25T13:40:12.055Z,20.50
2022-09-25T13:42:40.814Z,20.60
2022-09-25T13:45:37.147Z,20.70
2022-09-25T13:48:12.955Z,20.80
2022-09-25T13:50:43.557Z,20.80
2022-09-25T13:53:20.701Z,20.80
2022-09-25T13:56:13.780Z,20.80
2022-09-25T13:59:07.700Z,20.70
2022-09-25T14:01:37.420Z,20.70
2022-09-25T14:04:12.257Z,20.60
2022-09-25T14:06:42.248Z,20.50
2022-09-25T14:09:11.275Z,20.60
2022-09-25T14:11:39.580Z,20.50
2022-09-25T14:14:09.962Z,20.50
2022-09-25T14:16:41.529Z,20.50
2022-09-25T14:19:09.443Z,20.50
2022-09-25T14:21:37.436Z,20.50
2022-09-25T14:24:18.701Z,20.50
2022-09-25T14:26:46.639Z,20.50
2022-09-25T14:29:16.870Z,20.50
2022-09-25T14:31:47.736Z,20.50
2022-09-25T14:34:42.990Z,20.40
2022-09-25T14:37:20.663Z,20.50
2022-09-25T14:39:53.991Z,20.70
2022-09-25T14:42:33.459Z,20.90
2022-09-25T14:45:12.548Z,20.90
2022-09-25T14:47:44.510Z,20.90
2022-09-25T14:50:17.450Z,20.90
2022-09-25T14:52:45.319Z,20.80
2022-09-25T14:55:18.292Z,20.60
2022-09-25T14:57:46.135Z,20.60
2022-09-25T15:00:16.742Z,20.60
2022-09-25T15:02:45.630Z,20.60
2022-09-25T15:05:25.710Z,20.50
2022-09-25T15:07:53.918Z,20.50
2022-09-25T15:10:28.846Z,20.50
2022-09-25T15:13:06.206Z,20.60
2022-09-25T15:15:34.566Z,20.80
2022-09-25T15:18:02.592Z,20.90
2022-09-25T15:20:32.215Z,20.80
2022-09-25T15:23:01.305Z,20.70
2022-09-25T15:25:32.309Z,20.70
2022-09-25T15:28:00.276Z,20.70
2022-09-25T15:30:28.710Z,20.70
2022-09-25T15:33:00.762Z,20.60
2022-09-25T15:35:29.382Z,20.60
2022-09-25T15:38:03.928Z,20.60
2022-09-25T15:40:34.015Z,20.60
2022-09-25T15:43:02.748Z,20.60
2022-09-25T15:45:38.922Z,20.50
2022-09-25T15:48:32.727Z,20.50
2022-09-25T15:51:02.017Z,20.50
2022-09-25T15:53:31.116Z,20.60
2022-09-25T15:56:07.013Z,20.80
2022-09-25T15:58:37.763Z,20.90
2022-09-25T16:01:23.250Z,20.90
2022-09-25T16:04:09.970Z,20.80
2022-09-25T16:06:42.665Z,20.80
2022-09-25T16:09:12.135Z,20.80
2022-09-25T16:11:41.479Z,20.80
2022-09-25T16:14:22.454Z,20.70
2022-09-25T16:16:50.770Z,20.60
2022-09-25T16:19:30.076Z,20.70
2022-09-25T16:21:58.884Z,20.60
2022-09-25T16:24:28.677Z,20.60
2022-09-25T16:26:58.809Z,20.60
2022-09-25T16:29:27.304Z,20.50
2022-09-25T16:31:56.118Z,20.60
2022-09-25T16:34:27.250Z,20.70
2022-09-25T16:36:57.508Z,20.90
2022-09-25T16:39:28.104Z,21.00
2022-09-25T16:41:59.836Z,21.10
2022-09-25T16:44:45.966Z,21.00
2022-09-25T16:47:16.464Z,20.90
2022-09-25T16:49:44.793Z,20.90
2022-09-25T16:52:20.161Z,20.70
2022-09-25T16:54:52.524Z,20.80
2022-09-25T16:57:22.475Z,20.80
2022-09-25T16:59:50.530Z,20.70
2022-09-25T17:02:32.706Z,20.60
2022-09-25T17:05:02.396Z,20.60
2022-09-25T17:07:30.305Z,20.60
2022-09-25T17:09:58.831Z,20.60
2022-09-25T17:12:28.127Z,20.60
2022-09-25T17:14:56.055Z,20.60
2022-09-25T17:17:23.920Z,20.50
2022-09-25T17:19:51.818Z,20.50
2022-09-25T17:22:19.682Z,20.60
2022-09-25T17:24:47.591Z,20.80
2022-09-25T17:27:16.532Z,21.00
2022-09-25T17:29:48.036Z,21.10
2022-09-25T17:32:17.426Z,21.10
2022-09-25T17:34:45.944Z,21.00
2022-09-25T17:37:13.811Z,20.90
2022-09-25T17:39:41.706Z,20.80
2022-09-25T17:42:10.879Z,20.70
2022-09-25T17:44:42.527Z,20.70
2022-09-25T17:47:13.139Z,20.70
2022-09-25T17:49:41.861Z,20.60
2022-09-25T17:52:10.376Z,20.60
2022-09-25T17:54:38.260Z,20.60
2022-09-25T17:57:06.157Z,20.60
2022-09-25T17:59:34.078Z,20.60
2022-09-25T18:02:01.990Z,20.50
2022-09-25T18:04:31.241Z,20.50
2022-09-25T18:06:59.967Z,20.50
2022-09-25T18:09:27.852Z,20.60
2022-09-25T18:11:55.771Z,20.70
2022-09-25T18:14:24.563Z,20.90
2022-09-25T18:16:52.419Z,21.00
2022-09-25T18:19:38.100Z,21.10
2022-09-25T18:22:21.335Z,21.00
2022-09-25T18:24:52.633Z,20.90
2022-09-25T18:27:20.520Z,20.80
2022-09-25T18:29:48.450Z,20.70
2022-09-25T18:32:16.369Z,20.70
2022-09-25T18:34:44.350Z,20.70
2022-09-25T18:37:13.586Z,20.60
2022-09-25T18:39:41.470Z,20.60
2022-09-25T18:42:09.337Z,20.50
2022-09-25T18:44:42.000Z,20.60
2022-09-25T18:47:10.859Z,20.60
2022-09-25T18:49:38.746Z,20.60
2022-09-25T18:52:06.741Z,20.50
2022-09-25T18:54:35.988Z,20.50
2022-09-25T18:57:03.943Z,20.50
2022-09-25T18:59:31.785Z,20.60
2022-09-25T19:02:00.065Z,20.70
2022-09-25T19:04:29.001Z,20.90
2022-09-25T19:06:56.962Z,21.00
2022-09-25T19:09:27.212Z,21.00
2022-09-25T19:11:56.490Z,21.00
2022-09-25T19:14:24.956Z,20.90
2022-09-25T19:16:53.262Z,20.80
2022-09-25T19:19:23.298Z,20.70
2022-09-25T19:21:51.169Z,20.70
2022-09-25T19:24:19.175Z,20.70
2022-09-25T19:26:47.953Z,20.60
2022-09-25T19:29:17.186Z,20.60
2022-09-25T19:31:45.237Z,20.60
2022-09-25T19:34:13.165Z,20.60
2022-09-25T19:36:41.037Z,20.60
2022-09-25T19:39:08.974Z,20.50
2022-09-25T19:41:38.023Z,20.50
2022-09-25T19:44:12.811Z,20.50
2022-09-25T19:46:43.220Z,20.50
2022-09-25T19:49:11.370Z,20.60
2022-09-25T19:51:39.430Z,20.80
2022-09-25T19:54:07.709Z,20.90
2022-09-25T19:56:40.318Z,21.00
2022-09-25T19:59:08.730Z,21.00
2022-09-25T20:01:36.787Z,21.00
2022-09-25T20:04:08.401Z,20.90
2022-09-25T20:06:37.602Z,20.80
2022-09-25T20:09:06.353Z,20.70
2022-09-25T20:11:34.513Z,20.70
2022-09-25T20:14:02.611Z,20.70
2022-09-25T20:16:30.619Z,20.60
2022-09-25T20:18:59.636Z,20.60
2022-09-25T20:21:31.616Z,20.60
2022-09-25T20:24:00.533Z,20.50
2022-09-25T20:26:28.521Z,20.60
2022-09-25T20:28:58.192Z,20.50
2022-09-25T20:31:26.590Z,20.50
2022-09-25T20:33:54.698Z,20.50
2022-09-25T20:36:22.864Z,20.50
2022-09-25T20:38:52.678Z,20.60
2022-09-25T20:41:20.861Z,20.70
2022-09-25T20:43:50.331Z,20.90
2022-09-25T20:46:19.545Z,21.00
2022-09-25T20:48:48.510Z,21.00
2022-09-25T20:51:17.503Z,20.90
2022-09-25T20:53:48.391Z,20.80
2022-09-25T20:56:17.946Z,20.70
2022-09-25T20:58:49.482Z,20.70
2022-09-25T21:01:21.544Z,20.70
2022-09-25T21:03:50.164Z,20.70
2022-09-25T21:06:18.826Z,20.60
2022-09-25T21:08:46.799Z,20.60
2022-09-25T21:11:14.632Z,20.50
2022-09-25T21:13:43.829Z,20.50
2022-09-25T21:16:12.764Z,20.60
2022-09-25T21:18:40.848Z,20.50
2022-09-25T21:21:10.679Z,20.50
2022-09-25T21:23:38.635Z,20.40
2022-09-25T21:26:10.048Z,20.50
2022-09-25T21:28:38.160Z,20.60
2022-09-25T21:31:09.329Z,20.70
2022-09-25T21:33:37.445Z,20.90
2022-09-25T21:36:05.450Z,21.00
2022-09-25T21:38:34.705Z,21.00
2022-09-25T21:41:03.540Z,20.90
2022-09-25T21:43:32.124Z,20.80
2022-09-25T21:46:00.337Z,20.70
2022-09-25T21:48:29.743Z,20.60
2022-09-25T21:50:58.705Z,20.60
2022-09-25T21:53:27.029Z,20.60
2022-09-25T21:56:00.825Z,20.60
2022-09-25T21:58:28.792Z,20.50
2022-09-25T22:01:05.305Z,20.50
2022-09-25T22:03:35.282Z,20.50
2022-09-25T22:06:03.884Z,20.50
2022-09-25T22:08:32.134Z,20.50
2022-09-25T22:11:00.694Z,20.50
2022-09-25T22:13:29.245Z,20.40
2022-09-25T22:16:01.138Z,20.50
2022-09-25T22:18:29.147Z,20.60
2022-09-25T22:20:58.355Z,20.70
2022-09-25T22:23:26.270Z,20.80
2022-09-25T22:25:54.166Z,20.80
2022-09-25T22:28:22.140Z,20.70
2022-09-25T22:30:50.312Z,20.70
2022-09-25T22:33:18.204Z,20.70
2022-09-25T22:35:46.104Z,20.70
2022-09-25T22:38:15.301Z,20.60
2022-09-25T22:40:43.193Z,20.60
2022-09-25T22:43:11.132Z,20.50
2022-09-25T22:45:39.200Z,20.60
2022-09-25T22:48:07.081Z,20.50
2022-09-25T22:50:34.943Z,20.50
2022-09-25T22:53:02.814Z,20.50
2022-09-25T22:55:32.096Z,20.40
2022-09-25T22:58:00.124Z,20.50
2022-09-25T23:00:28.009Z,20.60
2022-09-25T23:02:56.437Z,20.70
2022-09-25T23:05:24.433Z,20.80
2022-09-25T23:07:52.305Z,20.80
2022-09-25T23:10:20.195Z,20.80
2022-09-25T23:12:49.833Z,20.80
2022-09-25T23:15:17.755Z,20.70
2022-09-25T23:17:45.594Z,20.70
2022-09-25T23:20:13.465Z,20.60
2022-09-25T23:22:41.361Z,20.50
2022-09-25T23:25:10.024Z,20.60
2022-09-25T23:27:37.878Z,20.60
2022-09-25T23:30:08.203Z,20.50
2022-09-25T23:32:36.373Z,20.40
2022-09-25T23:35:04.248Z,20.50
2022-09-25T23:37:32.113Z,20.40
2022-09-25T23:39:59.986Z,20.40
2022-09-25T23:42:27.827Z,20.40
2022-09-25T23:44:55.641Z,20.50
2022-09-25T23:47:24.897Z,20.40
2022-09-25T23:49:52.783Z,20.40
2022-09-25T23:52:20.662Z,20.50
2022-09-25T23:54:48.533Z,20.60
2022-09-25T23:57:18.009Z,20.80
2022-09-25T23:59:45.901Z,20.90
